Terminal Aerodrome Forecast
Issued by NWS Cleveland, OH

Home | Current Version | Previous Version | Text Only | Print | Product List | Glossary On
Versions: 1 2 3 4 5 6 7 8 9 10 11 12 13 14 15 16 17 18 19 20 21
000
FTUS41 KCLE 302300 CCA
TAFYNG
TAF COR
KYNG 302355Z 3100/3124 24005KT P6SM SCT040 BKN080
     FM310600 23004KT 4SM BR SCT050 BKN120
     FM311500 24008KT P6SM BKN045=

USA.gov is the U.S. government's official web portal to all federal, state and local government web resources and services.